sensor_id;sensor_type;location;lat;lon;timestamp;P1;durP1;ratioP1;P2;durP2;ratioP2
35745;SDS011;21870;42.812;74.628;2022-12-29T00:01:55;11.30;;;7.90;;
35745;SDS011;21870;42.812;74.628;2022-12-29T00:04:21;7.95;;;6.97;;
35745;SDS011;21870;42.812;74.628;2022-12-29T00:06:48;11.07;;;6.70;;
35745;SDS011;21870;42.812;74.628;2022-12-29T00:09:15;9.00;;;6.55;;
35745;SDS011;21870;42.812;74.628;2022-12-29T00:11:41;9.27;;;6.28;;
35745;SDS011;21870;42.812;74.628;2022-12-29T00:14:08;13.77;;;7.50;;
35745;SDS011;21870;42.812;74.628;2022-12-29T00:16:53;7.45;;;6.38;;
35745;SDS011;21870;42.812;74.628;2022-12-29T00:19:20;10.20;;;8.07;;
35745;SDS011;21870;42.812;74.628;2022-12-29T00:22:05;10.27;;;7.43;;
35745;SDS011;21870;42.812;74.628;2022-12-29T00:24:49;8.90;;;7.55;;
35745;SDS011;21870;42.812;74.628;2022-12-29T00:27:31;13.70;;;8.25;;
35745;SDS011;21870;42.812;74.628;2022-12-29T00:30:22;11.02;;;7.30;;
35745;SDS011;21870;42.812;74.628;2022-12-29T00:35:57;35.35;;;27.27;;
35745;SDS011;21870;42.812;74.628;2022-12-29T00:38:34;50.60;;;39.42;;
35745;SDS011;21870;42.812;74.628;2022-12-29T00:41:22;11.73;;;9.20;;
35745;SDS011;21870;42.812;74.628;2022-12-29T00:44:07;12.73;;;8.50;;
35745;SDS011;21870;42.812;74.628;2022-12-29T00:46:38;12.00;;;8.23;;
35745;SDS011;21870;42.812;74.628;2022-12-29T00:49:07;11.13;;;8.35;;
35745;SDS011;21870;42.812;74.628;2022-12-29T00:51:53;10.85;;;7.75;;
35745;SDS011;21870;42.812;74.628;2022-12-29T00:54:20;9.98;;;7.40;;
35745;SDS011;21870;42.812;74.628;2022-12-29T00:56:47;16.92;;;9.18;;
35745;SDS011;21870;42.812;74.628;2022-12-29T00:59:14;9.52;;;8.55;;
35745;SDS011;21870;42.812;74.628;2022-12-29T01:01:40;11.57;;;8.95;;
35745;SDS011;21870;42.812;74.628;2022-12-29T01:04:07;12.82;;;10.40;;
35745;SDS011;21870;42.812;74.628;2022-12-29T01:06:34;21.48;;;14.88;;
35745;SDS011;21870;42.812;74.628;2022-12-29T01:09:02;25.77;;;17.40;;
35745;SDS011;21870;42.812;74.628;2022-12-29T01:11:47;25.73;;;17.85;;
35745;SDS011;21870;42.812;74.628;2022-12-29T01:14:13;25.13;;;18.88;;
35745;SDS011;21870;42.812;74.628;2022-12-29T01:16:39;26.85;;;19.20;;
35745;SDS011;21870;42.812;74.628;2022-12-29T01:19:05;25.08;;;19.00;;
35745;SDS011;21870;42.812;74.628;2022-12-29T01:21:31;30.33;;;18.58;;
35745;SDS011;21870;42.812;74.628;2022-12-29T01:23:58;30.58;;;18.88;;
35745;SDS011;21870;42.812;74.628;2022-12-29T01:26:24;24.15;;;16.00;;
35745;SDS011;21870;42.812;74.628;2022-12-29T01:28:50;15.30;;;12.60;;
35745;SDS011;21870;42.812;74.628;2022-12-29T01:31:16;21.48;;;14.05;;
35745;SDS011;21870;42.812;74.628;2022-12-29T01:33:42;17.60;;;12.82;;
35745;SDS011;21870;42.812;74.628;2022-12-29T01:36:11;20.58;;;13.38;;
35745;SDS011;21870;42.812;74.628;2022-12-29T01:38:39;20.90;;;13.23;;
35745;SDS011;21870;42.812;74.628;2022-12-29T01:41:05;20.88;;;14.00;;
35745;SDS011;21870;42.812;74.628;2022-12-29T01:49:21;15.93;;;11.77;;
35745;SDS011;21870;42.812;74.628;2022-12-29T01:51:53;18.20;;;12.18;;
35745;SDS011;21870;42.812;74.628;2022-12-29T01:54:24;22.95;;;16.13;;
35745;SDS011;21870;42.812;74.628;2022-12-29T01:56:57;21.13;;;15.73;;
35745;SDS011;21870;42.812;74.628;2022-12-29T01:59:27;21.23;;;15.63;;
35745;SDS011;21870;42.812;74.628;2022-12-29T02:01:58;29.58;;;19.20;;
35745;SDS011;21870;42.812;74.628;2022-12-29T02:04:25;21.63;;;16.48;;
35745;SDS011;21870;42.812;74.628;2022-12-29T02:06:58;26.02;;;17.20;;
35745;SDS011;21870;42.812;74.628;2022-12-29T02:09:31;32.30;;;22.13;;
35745;SDS011;21870;42.812;74.628;2022-12-29T02:11:57;38.35;;;25.55;;
35745;SDS011;21870;42.812;74.628;2022-12-29T02:14:24;37.95;;;24.42;;
35745;SDS011;21870;42.812;74.628;2022-12-29T02:28:13;40.25;;;25.00;;
35745;SDS011;21870;42.812;74.628;2022-12-29T02:30:43;76.10;;;37.28;;
35745;SDS011;21870;42.812;74.628;2022-12-29T02:36:06;69.68;;;34.88;;
35745;SDS011;21870;42.812;74.628;2022-12-29T02:47:25;78.25;;;41.50;;
35745;SDS011;21870;42.812;74.628;2022-12-29T02:53:11;80.68;;;43.30;;
35745;SDS011;21870;42.812;74.628;2022-12-29T02:55:16;71.80;;;37.40;;
35745;SDS011;21870;42.812;74.628;2022-12-29T02:57:45;66.40;;;34.75;;
35745;SDS011;21870;42.812;74.628;2022-12-29T03:00:15;67.95;;;36.65;;
35745;SDS011;21870;42.812;74.628;2022-12-29T03:11:14;77.45;;;40.22;;
35745;SDS011;21870;42.812;74.628;2022-12-29T03:14:07;75.55;;;38.45;;
35745;SDS011;21870;42.812;74.628;2022-12-29T03:17:19;65.43;;;42.60;;
35745;SDS011;21870;42.812;74.628;2022-12-29T03:19:47;62.30;;;42.78;;
35745;SDS011;21870;42.812;74.628;2022-12-29T03:22:19;62.25;;;40.95;;
35745;SDS011;21870;42.812;74.628;2022-12-29T03:25:12;54.88;;;34.55;;
35745;SDS011;21870;42.812;74.628;2022-12-29T03:27:49;49.55;;;31.40;;
35745;SDS011;21870;42.812;74.628;2022-12-29T03:30:21;49.58;;;29.17;;
35745;SDS011;21870;42.812;74.628;2022-12-29T03:32:52;36.58;;;26.40;;
35745;SDS011;21870;42.812;74.628;2022-12-29T03:35:25;37.15;;;24.45;;
35745;SDS011;21870;42.812;74.628;2022-12-29T03:37:57;46.03;;;28.67;;
35745;SDS011;21870;42.812;74.628;2022-12-29T03:40:29;41.63;;;26.02;;
35745;SDS011;21870;42.812;74.628;2022-12-29T03:42:57;44.25;;;23.88;;
35745;SDS011;21870;42.812;74.628;2022-12-29T03:45:24;50.30;;;27.65;;
35745;SDS011;21870;42.812;74.628;2022-12-29T03:47:50;40.90;;;26.10;;
35745;SDS011;21870;42.812;74.628;2022-12-29T03:50:18;44.42;;;27.60;;
35745;SDS011;21870;42.812;74.628;2022-12-29T03:52:44;41.45;;;26.48;;
35745;SDS011;21870;42.812;74.628;2022-12-29T03:55:10;42.45;;;24.70;;
35745;SDS011;21870;42.812;74.628;2022-12-29T03:57:36;45.28;;;27.55;;
35745;SDS011;21870;42.812;74.628;2022-12-29T04:00:04;43.65;;;23.48;;
35745;SDS011;21870;42.812;74.628;2022-12-29T04:02:31;32.72;;;20.25;;
35745;SDS011;21870;42.812;74.628;2022-12-29T04:04:57;31.83;;;18.38;;
35745;SDS011;21870;42.812;74.628;2022-12-29T04:07:23;35.88;;;21.50;;
35745;SDS011;21870;42.812;74.628;2022-12-29T04:09:49;33.60;;;20.48;;
35745;SDS011;21870;42.812;74.628;2022-12-29T04:12:16;27.98;;;19.08;;
35745;SDS011;21870;42.812;74.628;2022-12-29T04:14:42;29.48;;;19.65;;
35745;SDS011;21870;42.812;74.628;2022-12-29T04:17:08;30.58;;;18.80;;
35745;SDS011;21870;42.812;74.628;2022-12-29T04:19:34;27.58;;;19.05;;
35745;SDS011;21870;42.812;74.628;2022-12-29T04:22:00;26.85;;;17.50;;
35745;SDS011;21870;42.812;74.628;2022-12-29T04:24:26;28.52;;;16.73;;
35745;SDS011;21870;42.812;74.628;2022-12-29T04:26:52;29.80;;;18.13;;
35745;SDS011;21870;42.812;74.628;2022-12-29T04:29:18;27.27;;;17.13;;
35745;SDS011;21870;42.812;74.628;2022-12-29T04:31:44;27.02;;;19.90;;
35745;SDS011;21870;42.812;74.628;2022-12-29T04:34:10;30.88;;;21.67;;
35745;SDS011;21870;42.812;74.628;2022-12-29T04:36:37;28.42;;;16.65;;
35745;SDS011;21870;42.812;74.628;2022-12-29T04:39:05;24.20;;;18.48;;
35745;SDS011;21870;42.812;74.628;2022-12-29T04:41:31;35.55;;;18.45;;
35745;SDS011;21870;42.812;74.628;2022-12-29T04:43:57;27.38;;;18.90;;
35745;SDS011;21870;42.812;74.628;2022-12-29T04:46:23;33.53;;;21.15;;
35745;SDS011;21870;42.812;74.628;2022-12-29T04:48:50;34.03;;;22.90;;
35745;SDS011;21870;42.812;74.628;2022-12-29T04:51:16;25.02;;;17.00;;
35745;SDS011;21870;42.812;74.628;2022-12-29T04:53:42;22.20;;;15.48;;
35745;SDS011;21870;42.812;74.628;2022-12-29T04:56:08;23.85;;;15.30;;
35745;SDS011;21870;42.812;74.628;2022-12-29T04:58:34;28.35;;;16.58;;
35745;SDS011;21870;42.812;74.628;2022-12-29T05:01:01;24.83;;;16.67;;
35745;SDS011;21870;42.812;74.628;2022-12-29T05:03:27;30.52;;;19.48;;
35745;SDS011;21870;42.812;74.628;2022-12-29T05:05:54;29.80;;;19.83;;
35745;SDS011;21870;42.812;74.628;2022-12-29T05:08:21;36.05;;;21.77;;
35745;SDS011;21870;42.812;74.628;2022-12-29T05:10:49;34.72;;;21.52;;
35745;SDS011;21870;42.812;74.628;2022-12-29T05:13:16;29.77;;;22.13;;
35745;SDS011;21870;42.812;74.628;2022-12-29T05:15:51;35.65;;;23.13;;
35745;SDS011;21870;42.812;74.628;2022-12-29T05:18:18;37.20;;;23.90;;
35745;SDS011;21870;42.812;74.628;2022-12-29T05:20:45;35.83;;;24.13;;
35745;SDS011;21870;42.812;74.628;2022-12-29T05:23:14;38.00;;;23.52;;
35745;SDS011;21870;42.812;74.628;2022-12-29T05:25:40;47.75;;;26.95;;
35745;SDS011;21870;42.812;74.628;2022-12-29T05:28:07;39.50;;;24.08;;
35745;SDS011;21870;42.812;74.628;2022-12-29T05:30:34;38.90;;;25.58;;
35745;SDS011;21870;42.812;74.628;2022-12-29T05:33:00;52.05;;;26.25;;
35745;SDS011;21870;42.812;74.628;2022-12-29T05:35:26;41.08;;;27.45;;
35745;SDS011;21870;42.812;74.628;2022-12-29T05:37:52;39.30;;;27.17;;
35745;SDS011;21870;42.812;74.628;2022-12-29T05:40:18;30.90;;;23.13;;
35745;SDS011;21870;42.812;74.628;2022-12-29T05:42:44;33.75;;;21.80;;
35745;SDS011;21870;42.812;74.628;2022-12-29T05:45:10;26.33;;;20.15;;
35745;SDS011;21870;42.812;74.628;2022-12-29T05:47:36;25.33;;;17.90;;
35745;SDS011;21870;42.812;74.628;2022-12-29T05:50:02;23.50;;;17.85;;
35745;SDS011;21870;42.812;74.628;2022-12-29T05:52:29;26.10;;;18.75;;
35745;SDS011;21870;42.812;74.628;2022-12-29T05:54:55;26.13;;;15.93;;
35745;SDS011;21870;42.812;74.628;2022-12-29T05:57:21;24.30;;;16.65;;
35745;SDS011;21870;42.812;74.628;2022-12-29T05:59:47;20.60;;;16.48;;
35745;SDS011;21870;42.812;74.628;2022-12-29T06:02:13;29.67;;;21.20;;
35745;SDS011;21870;42.812;74.628;2022-12-29T06:04:39;31.13;;;18.10;;
35745;SDS011;21870;42.812;74.628;2022-12-29T06:07:05;31.13;;;19.73;;
35745;SDS011;21870;42.812;74.628;2022-12-29T06:09:31;38.22;;;20.05;;
35745;SDS011;21870;42.812;74.628;2022-12-29T06:11:57;27.65;;;20.40;;
35745;SDS011;21870;42.812;74.628;2022-12-29T06:14:23;44.40;;;22.13;;
35745;SDS011;21870;42.812;74.628;2022-12-29T06:16:49;32.55;;;19.85;;
35745;SDS011;21870;42.812;74.628;2022-12-29T06:19:15;30.50;;;19.30;;
35745;SDS011;21870;42.812;74.628;2022-12-29T06:21:41;31.73;;;20.67;;
35745;SDS011;21870;42.812;74.628;2022-12-29T06:24:07;33.72;;;20.40;;
35745;SDS011;21870;42.812;74.628;2022-12-29T06:26:36;32.85;;;20.35;;
35745;SDS011;21870;42.812;74.628;2022-12-29T06:29:05;31.75;;;21.02;;
35745;SDS011;21870;42.812;74.628;2022-12-29T06:31:33;30.02;;;20.92;;
35745;SDS011;21870;42.812;74.628;2022-12-29T06:33:59;54.85;;;23.13;;
35745;SDS011;21870;42.812;74.628;2022-12-29T06:36:25;31.73;;;18.50;;
35745;SDS011;21870;42.812;74.628;2022-12-29T06:38:51;29.25;;;18.10;;
35745;SDS011;21870;42.812;74.628;2022-12-29T06:41:19;28.90;;;18.30;;
35745;SDS011;21870;42.812;74.628;2022-12-29T06:43:45;28.52;;;17.02;;
35745;SDS011;21870;42.812;74.628;2022-12-29T06:46:11;38.35;;;19.38;;
35745;SDS011;21870;42.812;74.628;2022-12-29T06:48:37;33.20;;;19.35;;
35745;SDS011;21870;42.812;74.628;2022-12-29T06:51:03;32.25;;;18.60;;
35745;SDS011;21870;42.812;74.628;2022-12-29T06:53:29;28.80;;;21.17;;
35745;SDS011;21870;42.812;74.628;2022-12-29T06:55:55;32.92;;;20.98;;
35745;SDS011;21870;42.812;74.628;2022-12-29T06:58:21;31.73;;;22.88;;
35745;SDS011;21870;42.812;74.628;2022-12-29T07:00:48;38.65;;;23.45;;
35745;SDS011;21870;42.812;74.628;2022-12-29T07:03:14;36.83;;;22.52;;
35745;SDS011;21870;42.812;74.628;2022-12-29T07:05:40;37.25;;;23.50;;
35745;SDS011;21870;42.812;74.628;2022-12-29T07:08:06;48.55;;;28.33;;
35745;SDS011;21870;42.812;74.628;2022-12-29T07:10:32;40.58;;;27.73;;
35745;SDS011;21870;42.812;74.628;2022-12-29T07:12:58;44.78;;;29.05;;
35745;SDS011;21870;42.812;74.628;2022-12-29T07:15:24;49.10;;;31.00;;
35745;SDS011;21870;42.812;74.628;2022-12-29T07:17:50;48.10;;;33.58;;
35745;SDS011;21870;42.812;74.628;2022-12-29T07:20:16;50.25;;;32.55;;
35745;SDS011;21870;42.812;74.628;2022-12-29T07:22:42;49.22;;;35.80;;
35745;SDS011;21870;42.812;74.628;2022-12-29T07:25:09;43.25;;;31.92;;
35745;SDS011;21870;42.812;74.628;2022-12-29T07:27:35;46.30;;;32.13;;
35745;SDS011;21870;42.812;74.628;2022-12-29T07:30:01;45.80;;;30.52;;
35745;SDS011;21870;42.812;74.628;2022-12-29T07:32:27;49.17;;;31.92;;
35745;SDS011;21870;42.812;74.628;2022-12-29T07:34:53;41.20;;;32.70;;
35745;SDS011;21870;42.812;74.628;2022-12-29T07:37:19;47.10;;;34.00;;
35745;SDS011;21870;42.812;74.628;2022-12-29T07:39:45;52.70;;;35.85;;
35745;SDS011;21870;42.812;74.628;2022-12-29T07:42:12;52.95;;;37.00;;
35745;SDS011;21870;42.812;74.628;2022-12-29T07:44:38;50.58;;;36.67;;
35745;SDS011;21870;42.812;74.628;2022-12-29T07:47:04;60.55;;;36.95;;
35745;SDS011;21870;42.812;74.628;2022-12-29T07:49:30;61.33;;;40.88;;
35745;SDS011;21870;42.812;74.628;2022-12-29T07:51:56;53.72;;;42.63;;
35745;SDS011;21870;42.812;74.628;2022-12-29T07:54:22;60.45;;;43.38;;
35745;SDS011;21870;42.812;74.628;2022-12-29T07:56:48;63.03;;;46.38;;
35745;SDS011;21870;42.812;74.628;2022-12-29T07:59:15;73.65;;;48.45;;
35745;SDS011;21870;42.812;74.628;2022-12-29T08:01:41;64.65;;;48.40;;
35745;SDS011;21870;42.812;74.628;2022-12-29T08:04:07;72.10;;;55.13;;
35745;SDS011;21870;42.812;74.628;2022-12-29T08:06:33;75.03;;;57.33;;
35745;SDS011;21870;42.812;74.628;2022-12-29T08:09:00;80.85;;;61.33;;
35745;SDS011;21870;42.812;74.628;2022-12-29T08:11:26;88.10;;;60.95;;
35745;SDS011;21870;42.812;74.628;2022-12-29T08:13:53;80.13;;;55.30;;
35745;SDS011;21870;42.812;74.628;2022-12-29T08:16:19;79.38;;;55.33;;
35745;SDS011;21870;42.812;74.628;2022-12-29T08:18:45;79.00;;;51.60;;
35745;SDS011;21870;42.812;74.628;2022-12-29T08:21:11;69.43;;;53.75;;
35745;SDS011;21870;42.812;74.628;2022-12-29T08:23:37;63.63;;;46.42;;
35745;SDS011;21870;42.812;74.628;2022-12-29T08:26:03;67.65;;;47.60;;
35745;SDS011;21870;42.812;74.628;2022-12-29T08:28:31;69.70;;;50.45;;
35745;SDS011;21870;42.812;74.628;2022-12-29T08:30:59;76.55;;;53.13;;
35745;SDS011;21870;42.812;74.628;2022-12-29T08:33:26;75.68;;;53.67;;
35745;SDS011;21870;42.812;74.628;2022-12-29T08:35:57;78.28;;;53.58;;
35745;SDS011;21870;42.812;74.628;2022-12-29T08:38:28;63.95;;;46.40;;
35745;SDS011;21870;42.812;74.628;2022-12-29T08:40:55;63.88;;;44.95;;
35745;SDS011;21870;42.812;74.628;2022-12-29T08:43:22;66.65;;;45.50;;
35745;SDS011;21870;42.812;74.628;2022-12-29T08:45:49;56.05;;;40.28;;
35745;SDS011;21870;42.812;74.628;2022-12-29T08:48:15;55.10;;;36.20;;
35745;SDS011;21870;42.812;74.628;2022-12-29T08:50:45;48.85;;;33.75;;
35745;SDS011;21870;42.812;74.628;2022-12-29T08:53:11;48.47;;;35.25;;
35745;SDS011;21870;42.812;74.628;2022-12-29T08:55:38;48.33;;;33.75;;
35745;SDS011;21870;42.812;74.628;2022-12-29T08:58:04;44.35;;;32.75;;
35745;SDS011;21870;42.812;74.628;2022-12-29T09:00:30;43.03;;;29.05;;
35745;SDS011;21870;42.812;74.628;2022-12-29T09:02:56;46.65;;;30.98;;
35745;SDS011;21870;42.812;74.628;2022-12-29T09:05:22;42.67;;;29.75;;
35745;SDS011;21870;42.812;74.628;2022-12-29T09:07:48;38.97;;;29.00;;
35745;SDS011;21870;42.812;74.628;2022-12-29T09:10:14;45.67;;;28.85;;
35745;SDS011;21870;42.812;74.628;2022-12-29T09:12:40;47.78;;;32.47;;
35745;SDS011;21870;42.812;74.628;2022-12-29T09:15:06;41.83;;;30.77;;
35745;SDS011;21870;42.812;74.628;2022-12-29T09:17:33;49.05;;;29.92;;
35745;SDS011;21870;42.812;74.628;2022-12-29T09:20:12;42.30;;;30.40;;
35745;SDS011;21870;42.812;74.628;2022-12-29T09:22:40;41.15;;;31.15;;
35745;SDS011;21870;42.812;74.628;2022-12-29T09:25:06;48.35;;;31.55;;
35745;SDS011;21870;42.812;74.628;2022-12-29T09:27:34;49.67;;;32.65;;
35745;SDS011;21870;42.812;74.628;2022-12-29T09:30:01;53.90;;;33.65;;
35745;SDS011;21870;42.812;74.628;2022-12-29T09:32:32;42.42;;;32.45;;
35745;SDS011;21870;42.812;74.628;2022-12-29T09:34:58;49.85;;;36.00;;
35745;SDS011;21870;42.812;74.628;2022-12-29T09:37:24;52.88;;;37.50;;
35745;SDS011;21870;42.812;74.628;2022-12-29T09:39:51;52.80;;;38.40;;
35745;SDS011;21870;42.812;74.628;2022-12-29T09:42:35;46.35;;;38.15;;
35745;SDS011;21870;42.812;74.628;2022-12-29T09:45:18;46.67;;;37.80;;
35745;SDS011;21870;42.812;74.628;2022-12-29T09:48:03;49.95;;;37.85;;
35745;SDS011;21870;42.812;74.628;2022-12-29T09:50:34;58.50;;;40.17;;
35745;SDS011;21870;42.812;74.628;2022-12-29T09:53:10;50.05;;;37.35;;
35745;SDS011;21870;42.812;74.628;2022-12-29T09:55:50;46.80;;;36.75;;
35745;SDS011;21870;42.812;74.628;2022-12-29T09:58:24;54.30;;;37.35;;
35745;SDS011;21870;42.812;74.628;2022-12-29T10:01:07;45.30;;;36.65;;
35745;SDS011;21870;42.812;74.628;2022-12-29T10:06:26;51.90;;;38.67;;
35745;SDS011;21870;42.812;74.628;2022-12-29T10:09:17;54.42;;;39.38;;
35745;SDS011;21870;42.812;74.628;2022-12-29T10:17:11;52.72;;;36.00;;
35745;SDS011;21870;42.812;74.628;2022-12-29T10:20:18;48.90;;;37.00;;
35745;SDS011;21870;42.812;74.628;2022-12-29T10:23:32;53.20;;;38.50;;
35745;SDS011;21870;42.812;74.628;2022-12-29T10:26:09;53.28;;;38.50;;
35745;SDS011;21870;42.812;74.628;2022-12-29T10:28:42;45.92;;;37.75;;
35745;SDS011;21870;42.812;74.628;2022-12-29T10:31:13;54.85;;;40.17;;
35745;SDS011;21870;42.812;74.628;2022-12-29T10:33:46;57.90;;;40.33;;
35745;SDS011;21870;42.812;74.628;2022-12-29T10:39:03;61.33;;;39.72;;
35745;SDS011;21870;42.812;74.628;2022-12-29T10:42:25;49.83;;;38.65;;
35745;SDS011;21870;42.812;74.628;2022-12-29T10:44:45;50.33;;;40.00;;
35745;SDS011;21870;42.812;74.628;2022-12-29T10:47:15;50.88;;;39.05;;
35745;SDS011;21870;42.812;74.628;2022-12-29T10:49:45;58.33;;;40.08;;
35745;SDS011;21870;42.812;74.628;2022-12-29T10:52:13;52.80;;;40.80;;
35745;SDS011;21870;42.812;74.628;2022-12-29T10:57:20;55.38;;;41.03;;
35745;SDS011;21870;42.812;74.628;2022-12-29T10:59:47;50.13;;;38.88;;
35745;SDS011;21870;42.812;74.628;2022-12-29T11:02:32;47.10;;;38.40;;
35745;SDS011;21870;42.812;74.628;2022-12-29T11:05:23;52.22;;;38.33;;
35745;SDS011;21870;42.812;74.628;2022-12-29T11:07:53;44.63;;;37.33;;
35745;SDS011;21870;42.812;74.628;2022-12-29T11:13:05;55.97;;;41.17;;
35745;SDS011;21870;42.812;74.628;2022-12-29T11:15:39;58.83;;;43.67;;
35745;SDS011;21870;42.812;74.628;2022-12-29T11:18:16;55.15;;;42.10;;
35745;SDS011;21870;42.812;74.628;2022-12-29T11:20:53;58.10;;;42.20;;
35745;SDS011;21870;42.812;74.628;2022-12-29T11:26:07;51.85;;;38.63;;
35745;SDS011;21870;42.812;74.628;2022-12-29T11:28:43;51.50;;;37.38;;
35745;SDS011;21870;42.812;74.628;2022-12-29T11:31:30;53.38;;;36.45;;
35745;SDS011;21870;42.812;74.628;2022-12-29T11:33:56;49.58;;;36.58;;
35745;SDS011;21870;42.812;74.628;2022-12-29T11:36:22;46.40;;;36.42;;
35745;SDS011;21870;42.812;74.628;2022-12-29T11:38:50;54.28;;;37.00;;
35745;SDS011;21870;42.812;74.628;2022-12-29T11:41:20;44.13;;;34.53;;
35745;SDS011;21870;42.812;74.628;2022-12-29T11:43:55;44.72;;;33.47;;
35745;SDS011;21870;42.812;74.628;2022-12-29T11:46:30;48.03;;;32.10;;
35745;SDS011;21870;42.812;74.628;2022-12-29T11:48:59;40.55;;;30.60;;
35745;SDS011;21870;42.812;74.628;2022-12-29T11:51:27;44.42;;;30.60;;
35745;SDS011;21870;42.812;74.628;2022-12-29T11:53:56;42.28;;;29.65;;
35745;SDS011;21870;42.812;74.628;2022-12-29T11:56:32;39.10;;;27.70;;
35745;SDS011;21870;42.812;74.628;2022-12-29T11:59:21;35.13;;;27.95;;
35745;SDS011;21870;42.812;74.628;2022-12-29T12:02:00;41.67;;;27.92;;
35745;SDS011;21870;42.812;74.628;2022-12-29T12:04:38;33.50;;;24.65;;
35745;SDS011;21870;42.812;74.628;2022-12-29T12:07:11;34.80;;;26.25;;
35745;SDS011;21870;42.812;74.628;2022-12-29T12:10:00;37.95;;;27.15;;
35745;SDS011;21870;42.812;74.628;2022-12-29T12:12:32;36.25;;;27.13;;
35745;SDS011;21870;42.812;74.628;2022-12-29T12:15:28;33.30;;;25.85;;
35745;SDS011;21870;42.812;74.628;2022-12-29T12:18:08;34.28;;;25.73;;
35745;SDS011;21870;42.812;74.628;2022-12-29T12:23:43;39.17;;;26.77;;
35745;SDS011;21870;42.812;74.628;2022-12-29T12:26:39;31.92;;;26.33;;
35745;SDS011;21870;42.812;74.628;2022-12-29T12:29:34;40.60;;;28.13;;
35745;SDS011;21870;42.812;74.628;2022-12-29T12:32:11;35.55;;;27.90;;
35745;SDS011;21870;42.812;74.628;2022-12-29T12:34:43;41.47;;;29.67;;
35745;SDS011;21870;42.812;74.628;2022-12-29T12:40:34;43.88;;;29.45;;
35745;SDS011;21870;42.812;74.628;2022-12-29T12:43:15;38.17;;;28.77;;
35745;SDS011;21870;42.812;74.628;2022-12-29T12:56:59;32.45;;;23.95;;
35745;SDS011;21870;42.812;74.628;2022-12-29T13:13:33;29.27;;;23.35;;
35745;SDS011;21870;42.812;74.628;2022-12-29T13:19:10;33.53;;;24.30;;
35745;SDS011;21870;42.812;74.628;2022-12-29T13:29:36;35.10;;;23.58;;
35745;SDS011;21870;42.812;74.628;2022-12-29T13:41:05;41.95;;;28.42;;
35745;SDS011;21870;42.812;74.628;2022-12-29T13:43:44;34.75;;;25.77;;
35745;SDS011;21870;42.812;74.628;2022-12-29T13:46:14;35.17;;;25.90;;
35745;SDS011;21870;42.812;74.628;2022-12-29T13:51:19;42.20;;;29.08;;
35745;SDS011;21870;42.812;74.628;2022-12-29T13:56:44;34.38;;;27.55;;
35745;SDS011;21870;42.812;74.628;2022-12-29T14:04:41;40.58;;;32.00;;
35745;SDS011;21870;42.812;74.628;2022-12-29T14:07:22;44.88;;;31.67;;
35745;SDS011;21870;42.812;74.628;2022-12-29T14:09:52;42.78;;;31.38;;
35745;SDS011;21870;42.812;74.628;2022-12-29T14:14:52;45.33;;;33.83;;
35745;SDS011;21870;42.812;74.628;2022-12-29T14:17:19;43.63;;;32.45;;
35745;SDS011;21870;42.812;74.628;2022-12-29T14:19:46;48.13;;;34.22;;
35745;SDS011;21870;42.812;74.628;2022-12-29T14:22:22;52.67;;;37.63;;
35745;SDS011;21870;42.812;74.628;2022-12-29T14:24:50;50.25;;;36.80;;
35745;SDS011;21870;42.812;74.628;2022-12-29T14:29:46;54.47;;;37.95;;
35745;SDS011;21870;42.812;74.628;2022-12-29T14:34:57;55.60;;;38.53;;
35745;SDS011;21870;42.812;74.628;2022-12-29T14:37:43;47.60;;;36.70;;
35745;SDS011;21870;42.812;74.628;2022-12-29T14:40:22;52.60;;;38.67;;
35745;SDS011;21870;42.812;74.628;2022-12-29T14:42:52;55.17;;;40.05;;
35745;SDS011;21870;42.812;74.628;2022-12-29T14:47:47;49.95;;;39.90;;
35745;SDS011;21870;42.812;74.628;2022-12-29T14:50:15;51.50;;;37.17;;
35745;SDS011;21870;42.812;74.628;2022-12-29T14:53:03;50.60;;;37.38;;
35745;SDS011;21870;42.812;74.628;2022-12-29T14:55:41;60.85;;;39.83;;
35745;SDS011;21870;42.812;74.628;2022-12-29T15:00:44;55.58;;;38.33;;
35745;SDS011;21870;42.812;74.628;2022-12-29T15:03:20;50.20;;;35.70;;
35745;SDS011;21870;42.812;74.628;2022-12-29T15:06:13;52.50;;;36.67;;
35745;SDS011;21870;42.812;74.628;2022-12-29T15:08:50;50.97;;;36.72;;
35745;SDS011;21870;42.812;74.628;2022-12-29T15:11:22;57.92;;;37.53;;
35745;SDS011;21870;42.812;74.628;2022-12-29T15:13:50;47.83;;;31.77;;
35745;SDS011;21870;42.812;74.628;2022-12-29T15:16:23;45.60;;;34.05;;
35745;SDS011;21870;42.812;74.628;2022-12-29T15:18:54;50.85;;;35.95;;
35745;SDS011;21870;42.812;74.628;2022-12-29T15:21:31;52.15;;;36.22;;
35745;SDS011;21870;42.812;74.628;2022-12-29T15:23:59;49.03;;;34.08;;
35745;SDS011;21870;42.812;74.628;2022-12-29T15:26:40;46.22;;;32.95;;
35745;SDS011;21870;42.812;74.628;2022-12-29T15:34:43;48.03;;;34.45;;
35745;SDS011;21870;42.812;74.628;2022-12-29T15:37:14;44.50;;;33.70;;
35745;SDS011;21870;42.812;74.628;2022-12-29T15:39:50;49.20;;;31.67;;
35745;SDS011;21870;42.812;74.628;2022-12-29T15:42:23;45.05;;;33.72;;
35745;SDS011;21870;42.812;74.628;2022-12-29T15:44:57;50.70;;;33.35;;
35745;SDS011;21870;42.812;74.628;2022-12-29T15:47:28;47.72;;;35.53;;
35745;SDS011;21870;42.812;74.628;2022-12-29T15:50:00;46.33;;;33.00;;
35745;SDS011;21870;42.812;74.628;2022-12-29T15:52:45;40.72;;;31.55;;
35745;SDS011;21870;42.812;74.628;2022-12-29T15:55:19;45.20;;;30.45;;
35745;SDS011;21870;42.812;74.628;2022-12-29T15:57:55;44.75;;;30.63;;
35745;SDS011;21870;42.812;74.628;2022-12-29T16:00:26;39.72;;;29.55;;
35745;SDS011;21870;42.812;74.628;2022-12-29T16:02:54;43.60;;;29.50;;
35745;SDS011;21870;42.812;74.628;2022-12-29T16:05:22;40.58;;;28.73;;
35745;SDS011;21870;42.812;74.628;2022-12-29T16:07:52;45.38;;;29.70;;
35745;SDS011;21870;42.812;74.628;2022-12-29T16:10:31;40.38;;;29.17;;
35745;SDS011;21870;42.812;74.628;2022-12-29T16:15:59;40.13;;;28.48;;
35745;SDS011;21870;42.812;74.628;2022-12-29T16:18:29;40.17;;;28.80;;
35745;SDS011;21870;42.812;74.628;2022-12-29T16:21:00;41.63;;;27.48;;
35745;SDS011;21870;42.812;74.628;2022-12-29T16:23:28;40.17;;;27.52;;
35745;SDS011;21870;42.812;74.628;2022-12-29T16:25:55;39.53;;;28.88;;
35745;SDS011;21870;42.812;74.628;2022-12-29T16:28:36;41.38;;;27.20;;
35745;SDS011;21870;42.812;74.628;2022-12-29T16:31:49;38.15;;;27.13;;
35745;SDS011;21870;42.812;74.628;2022-12-29T16:42:57;34.40;;;27.38;;
35745;SDS011;21870;42.812;74.628;2022-12-29T16:45:46;38.97;;;28.45;;
35745;SDS011;21870;42.812;74.628;2022-12-29T16:48:20;37.30;;;27.73;;
35745;SDS011;21870;42.812;74.628;2022-12-29T16:51:01;43.05;;;28.08;;
35745;SDS011;21870;42.812;74.628;2022-12-29T16:53:37;37.35;;;28.40;;
35745;SDS011;21870;42.812;74.628;2022-12-29T16:56:12;41.30;;;27.90;;
35745;SDS011;21870;42.812;74.628;2022-12-29T16:58:40;45.70;;;29.42;;
35745;SDS011;21870;42.812;74.628;2022-12-29T17:01:11;36.42;;;29.08;;
35745;SDS011;21870;42.812;74.628;2022-12-29T17:03:46;35.10;;;27.77;;
35745;SDS011;21870;42.812;74.628;2022-12-29T17:06:20;46.78;;;30.52;;
35745;SDS011;21870;42.812;74.628;2022-12-29T17:08:47;39.10;;;29.42;;